KONA/ONA METAR and TAF weather

Enter ICAO airport designator
Station Type Date Time Source
KONA METAR 2021/07/29 03:15 UTC NOAA

KONA 290315Z AUTO 23009G14KT 10SM CLR 28/25 A2979 RMK AO2 LTG DSNT N AND NE


Station Type Date Time Source
KONA Decoded METAR 2021/07/29 03:15 UTC NOAA

Winona, Winona Municipal Airport-Max Conrad Field, MN, United States (KONA) 44-05N 091-42W
Jul 28, 2021 - 11:15 PM EDT / 2021.07.29 0315 UTC
Wind: from the SW (230 degrees) at 10 MPH (9 KT) gusting to 16 MPH (14 KT):0
Visibility: 10 mile(s):0
Sky conditions: clear
Weather: Lightning observed
Temperature: 82 F (28 C)
Dew Point: 77 F (25 C)
Relative Humidity: 83%
Pressure (altimeter): 29.79 in. Hg (1008 hPa)
ob: KONA 290315Z AUTO 23009G14KT 10SM CLR 28/25 A2979 RMK AO2 LTG DSNT N AND NE
cycle: 3

Station Type Date Time Source
KONA TAF UTC NOAA

Error!

Example: see airport list